sensor_id;sensor_type;location;lat;lon;timestamp;pressure;altitude;pressure_sealevel;temperature;humidity
29379;BME280;16362;47.202;15.258;2022-10-22T00:01:40;96134.34;;;8.87;100.00
29379;BME280;16362;47.202;15.258;2022-10-22T00:04:07;96125.56;;;8.86;100.00
29379;BME280;16362;47.202;15.258;2022-10-22T00:06:34;96134.69;;;8.92;100.00
29379;BME280;16362;47.202;15.258;2022-10-22T00:09:00;96133.53;;;8.86;100.00
29379;BME280;16362;47.202;15.258;2022-10-22T00:11:27;96134.19;;;8.80;100.00
29379;BME280;16362;47.202;15.258;2022-10-22T00:13:54;96131.53;;;8.80;100.00
29379;BME280;16362;47.202;15.258;2022-10-22T00:16:21;96129.38;;;8.84;100.00
29379;BME280;16362;47.202;15.258;2022-10-22T00:18:47;96121.38;;;8.84;100.00
29379;BME280;16362;47.202;15.258;2022-10-22T00:21:14;96118.91;;;8.82;100.00
29379;BME280;16362;47.202;15.258;2022-10-22T00:23:41;96121.38;;;8.84;100.00
29379;BME280;16362;47.202;15.258;2022-10-22T00:26:09;96122.38;;;8.83;100.00
29379;BME280;16362;47.202;15.258;2022-10-22T00:28:36;96121.22;;;8.85;100.00
29379;BME280;16362;47.202;15.258;2022-10-22T00:31:03;96124.03;;;8.92;100.00
29379;BME280;16362;47.202;15.258;2022-10-22T00:33:30;96125.22;;;8.89;100.00
29379;BME280;16362;47.202;15.258;2022-10-22T00:35:57;96116.53;;;8.87;100.00
29379;BME280;16362;47.202;15.258;2022-10-22T00:38:23;96114.56;;;8.89;100.00
29379;BME280;16362;47.202;15.258;2022-10-22T00:40:50;96112.53;;;8.91;100.00
29379;BME280;16362;47.202;15.258;2022-10-22T00:43:18;96117.72;;;8.93;100.00
29379;BME280;16362;47.202;15.258;2022-10-22T00:45:45;96101.75;;;8.93;100.00
29379;BME280;16362;47.202;15.258;2022-10-22T00:48:16;96104.72;;;8.98;100.00
29379;BME280;16362;47.202;15.258;2022-10-22T00:50:47;96106.03;;;9.02;100.00
29379;BME280;16362;47.202;15.258;2022-10-22T00:53:19;96112.88;;;9.05;100.00
29379;BME280;16362;47.202;15.258;2022-10-22T00:55:50;96108.06;;;9.00;100.00
29379;BME280;16362;47.202;15.258;2022-10-22T00:58:19;96097.91;;;9.12;100.00
29379;BME280;16362;47.202;15.258;2022-10-22T01:00:48;96100.25;;;8.99;100.00
29379;BME280;16362;47.202;15.258;2022-10-22T01:03:15;96103.22;;;8.96;100.00
29379;BME280;16362;47.202;15.258;2022-10-22T01:21:25;96092.94;;;8.76;100.00
29379;BME280;16362;47.202;15.258;2022-10-22T01:24:10;96084.28;;;8.74;100.00
29379;BME280;16362;47.202;15.258;2022-10-22T01:29:29;96073.47;;;8.67;100.00
29379;BME280;16362;47.202;15.258;2022-10-22T01:32:01;96080.31;;;8.62;100.00
29379;BME280;16362;47.202;15.258;2022-10-22T01:34:31;96084.97;;;8.59;100.00
29379;BME280;16362;47.202;15.258;2022-10-22T01:36:59;96093.44;;;8.55;100.00
29379;BME280;16362;47.202;15.258;2022-10-22T01:39:29;96072.66;;;8.58;100.00
29379;BME280;16362;47.202;15.258;2022-10-22T01:41:57;96061.03;;;8.59;100.00
29379;BME280;16362;47.202;15.258;2022-10-22T01:44:34;96058.19;;;8.61;100.00
29379;BME280;16362;47.202;15.258;2022-10-22T01:47:14;96059.88;;;8.54;100.00
29379;BME280;16362;47.202;15.258;2022-10-22T01:52:20;96047.41;;;8.54;100.00
29379;BME280;16362;47.202;15.258;2022-10-22T01:54:58;96040.06;;;8.56;100.00
29379;BME280;16362;47.202;15.258;2022-10-22T02:00:09;96030.63;;;8.54;100.00
29379;BME280;16362;47.202;15.258;2022-10-22T02:02:47;96029.41;;;8.40;100.00
29379;BME280;16362;47.202;15.258;2022-10-22T02:08:21;96022.78;;;8.36;100.00
29379;BME280;16362;47.202;15.258;2022-10-22T02:10:50;96013.97;;;8.35;100.00
29379;BME280;16362;47.202;15.258;2022-10-22T02:13:23;96018.13;;;8.38;100.00
29379;BME280;16362;47.202;15.258;2022-10-22T02:15:52;96015.28;;;8.39;100.00
29379;BME280;16362;47.202;15.258;2022-10-22T02:18:23;96015.13;;;8.41;100.00
29379;BME280;16362;47.202;15.258;2022-10-22T02:20:51;96015.47;;;8.30;100.00
29379;BME280;16362;47.202;15.258;2022-10-22T02:23:19;96014.78;;;8.27;100.00
29379;BME280;16362;47.202;15.258;2022-10-22T02:25:52;96009.31;;;8.21;100.00
29379;BME280;16362;47.202;15.258;2022-10-22T02:28:37;96014.78;;;8.19;100.00
29379;BME280;16362;47.202;15.258;2022-10-22T02:31:13;96015.78;;;8.18;100.00
29379;BME280;16362;47.202;15.258;2022-10-22T02:33:45;96013.31;;;8.17;100.00
29379;BME280;16362;47.202;15.258;2022-10-22T02:36:14;96006.00;;;8.19;100.00
29379;BME280;16362;47.202;15.258;2022-10-22T02:38:42;96007.63;;;8.20;100.00
29379;BME280;16362;47.202;15.258;2022-10-22T02:41:09;96002.19;;;8.21;100.00
29379;BME280;16362;47.202;15.258;2022-10-22T02:43:41;96002.16;;;8.13;100.00
29379;BME280;16362;47.202;15.258;2022-10-22T02:46:09;96002.31;;;8.03;100.00
29379;BME280;16362;47.202;15.258;2022-10-22T02:48:36;95997.69;;;8.05;100.00
29379;BME280;16362;47.202;15.258;2022-10-22T02:51:03;95992.22;;;8.07;100.00
29379;BME280;16362;47.202;15.258;2022-10-22T02:53:29;95988.56;;;8.08;100.00
29379;BME280;16362;47.202;15.258;2022-10-22T02:55:56;95989.88;;;8.12;100.00
29379;BME280;16362;47.202;15.258;2022-10-22T02:58:23;96001.69;;;8.18;100.00
29379;BME280;16362;47.202;15.258;2022-10-22T03:00:49;95999.19;;;8.16;100.00
29379;BME280;16362;47.202;15.258;2022-10-22T03:03:16;95999.66;;;8.12;100.00
29379;BME280;16362;47.202;15.258;2022-10-22T03:05:43;95997.19;;;8.10;100.00
29379;BME280;16362;47.202;15.258;2022-10-22T03:08:09;95992.53;;;8.04;100.00
29379;BME280;16362;47.202;15.258;2022-10-22T03:10:36;95997.16;;;7.93;100.00
29379;BME280;16362;47.202;15.258;2022-10-22T03:13:03;95996.34;;;7.93;100.00
29379;BME280;16362;47.202;15.258;2022-10-22T03:15:29;95996.00;;;7.96;100.00
29379;BME280;16362;47.202;15.258;2022-10-22T03:17:56;95993.19;;;7.98;100.00
29379;BME280;16362;47.202;15.258;2022-10-22T03:20:23;95993.53;;;7.95;100.00
29379;BME280;16362;47.202;15.258;2022-10-22T03:22:49;95984.56;;;7.96;100.00
29379;BME280;16362;47.202;15.258;2022-10-22T03:25:20;95981.75;;;7.97;100.00
29379;BME280;16362;47.202;15.258;2022-10-22T03:27:48;95986.88;;;7.90;100.00
29379;BME280;16362;47.202;15.258;2022-10-22T03:30:17;95996.81;;;7.80;100.00
29379;BME280;16362;47.202;15.258;2022-10-22T03:32:44;96001.47;;;7.70;100.00
29379;BME280;16362;47.202;15.258;2022-10-22T03:35:11;96005.59;;;7.72;100.00
29379;BME280;16362;47.202;15.258;2022-10-22T03:37:38;95991.00;;;7.76;100.00
29379;BME280;16362;47.202;15.258;2022-10-22T03:40:06;95993.34;;;7.71;100.00
29379;BME280;16362;47.202;15.258;2022-10-22T03:42:33;96001.28;;;7.63;100.00
29379;BME280;16362;47.202;15.258;2022-10-22T03:45:00;96002.13;;;7.80;100.00
29379;BME280;16362;47.202;15.258;2022-10-22T03:47:27;95994.84;;;7.74;100.00
29379;BME280;16362;47.202;15.258;2022-10-22T03:49:53;96004.78;;;7.72;100.00
29379;BME280;16362;47.202;15.258;2022-10-22T03:52:20;96004.25;;;7.68;100.00
29379;BME280;16362;47.202;15.258;2022-10-22T03:54:47;95999.13;;;7.67;100.00
29379;BME280;16362;47.202;15.258;2022-10-22T03:57:13;95991.31;;;7.65;100.00
29379;BME280;16362;47.202;15.258;2022-10-22T03:59:42;95992.81;;;7.68;100.00
29379;BME280;16362;47.202;15.258;2022-10-22T04:02:11;95993.16;;;7.65;100.00
29379;BME280;16362;47.202;15.258;2022-10-22T04:04:38;95994.97;;;7.64;100.00
29379;BME280;16362;47.202;15.258;2022-10-22T04:07:05;95997.78;;;7.63;100.00
29379;BME280;16362;47.202;15.258;2022-10-22T04:09:33;95998.78;;;7.62;100.00
29379;BME280;16362;47.202;15.258;2022-10-22T04:12:00;95994.13;;;7.64;100.00
29379;BME280;16362;47.202;15.258;2022-10-22T04:14:26;95997.63;;;7.64;100.00
29379;BME280;16362;47.202;15.258;2022-10-22T04:16:53;95993.16;;;7.65;100.00
29379;BME280;16362;47.202;15.258;2022-10-22T04:19:20;96002.63;;;7.67;100.00
29379;BME280;16362;47.202;15.258;2022-10-22T04:21:46;96006.09;;;7.68;100.00
29379;BME280;16362;47.202;15.258;2022-10-22T04:24:13;96009.75;;;7.67;100.00
29379;BME280;16362;47.202;15.258;2022-10-22T04:26:40;96005.94;;;7.69;100.00
29379;BME280;16362;47.202;15.258;2022-10-22T04:29:07;96006.09;;;7.68;100.00
29379;BME280;16362;47.202;15.258;2022-10-22T04:31:40;96016.53;;;7.53;100.00
29379;BME280;16362;47.202;15.258;2022-10-22T04:34:07;96018.81;;;7.48;100.00
29379;BME280;16362;47.202;15.258;2022-10-22T04:36:33;96014.50;;;7.47;100.00
29379;BME280;16362;47.202;15.258;2022-10-22T04:39:01;96019.97;;;7.45;100.00
29379;BME280;16362;47.202;15.258;2022-10-22T04:41:33;96018.16;;;7.46;100.00
29379;BME280;16362;47.202;15.258;2022-10-22T04:44:01;96015.66;;;7.44;100.00
29379;BME280;16362;47.202;15.258;2022-10-22T04:46:30;96019.63;;;7.40;100.00
29379;BME280;16362;47.202;15.258;2022-10-22T04:48:57;96024.28;;;7.46;100.00
29379;BME280;16362;47.202;15.258;2022-10-22T04:51:25;96029.44;;;7.48;100.00
29379;BME280;16362;47.202;15.258;2022-10-22T04:53:52;96016.66;;;7.43;100.00
29379;BME280;16362;47.202;15.258;2022-10-22T04:56:25;96007.34;;;7.39;100.00
29379;BME280;16362;47.202;15.258;2022-10-22T04:59:00;96000.53;;;7.36;100.00
29379;BME280;16362;47.202;15.258;2022-10-22T05:01:33;96001.31;;;7.20;100.00
29379;BME280;16362;47.202;15.258;2022-10-22T05:04:06;95993.50;;;7.19;100.00
29379;BME280;16362;47.202;15.258;2022-10-22T05:06:35;95995.50;;;7.25;100.00
29379;BME280;16362;47.202;15.258;2022-10-22T05:09:07;95994.84;;;7.23;100.00
29379;BME280;16362;47.202;15.258;2022-10-22T05:11:37;95999.31;;;7.22;100.00
29379;BME280;16362;47.202;15.258;2022-10-22T05:14:07;95997.88;;;7.28;100.00
29379;BME280;16362;47.202;15.258;2022-10-22T05:16:35;95986.41;;;7.28;100.00
29379;BME280;16362;47.202;15.258;2022-10-22T05:19:04;95987.44;;;7.35;100.00
29379;BME280;16362;47.202;15.258;2022-10-22T05:21:31;95987.63;;;7.41;100.00
29379;BME280;16362;47.202;15.258;2022-10-22T05:23:58;95979.50;;;7.43;100.00
29379;BME280;16362;47.202;15.258;2022-10-22T05:26:26;95984.13;;;7.41;100.00
29379;BME280;16362;47.202;15.258;2022-10-22T05:28:53;95985.63;;;7.44;100.00
29379;BME280;16362;47.202;15.258;2022-10-22T05:31:26;95973.34;;;7.42;100.00
29379;BME280;16362;47.202;15.258;2022-10-22T05:33:54;95979.16;;;7.46;100.00
29379;BME280;16362;47.202;15.258;2022-10-22T05:36:21;95984.44;;;7.38;100.00
29379;BME280;16362;47.202;15.258;2022-10-22T05:38:48;95989.06;;;7.36;100.00
29379;BME280;16362;47.202;15.258;2022-10-22T05:41:18;95998.53;;;7.38;100.00
29379;BME280;16362;47.202;15.258;2022-10-22T05:43:45;96002.72;;;7.49;100.00
29379;BME280;16362;47.202;15.258;2022-10-22T05:46:14;96005.59;;;7.64;100.00
29379;BME280;16362;47.202;15.258;2022-10-22T05:48:48;96009.38;;;7.62;100.00
29379;BME280;16362;47.202;15.258;2022-10-22T05:51:16;96009.38;;;7.62;100.00
29379;BME280;16362;47.202;15.258;2022-10-22T05:53:43;96002.44;;;7.61;100.00
29379;BME280;16362;47.202;15.258;2022-10-22T05:56:12;95992.97;;;7.58;100.00
29379;BME280;16362;47.202;15.258;2022-10-22T05:58:40;96005.91;;;7.61;100.00
29379;BME280;16362;47.202;15.258;2022-10-22T06:01:14;96004.75;;;7.64;100.00
29379;BME280;16362;47.202;15.258;2022-10-22T06:03:42;96015.41;;;7.72;100.00
29379;BME280;16362;47.202;15.258;2022-10-22T06:06:32;96017.72;;;7.75;100.00
29379;BME280;16362;47.202;15.258;2022-10-22T06:09:03;96026.03;;;7.80;100.00
29379;BME280;16362;47.202;15.258;2022-10-22T06:11:32;96029.06;;;7.93;100.00
29379;BME280;16362;47.202;15.258;2022-10-22T06:14:00;96026.22;;;7.79;100.00
29379;BME280;16362;47.202;15.258;2022-10-22T06:16:28;96021.06;;;7.77;100.00
29379;BME280;16362;47.202;15.258;2022-10-22T06:18:57;96036.31;;;7.75;100.00
29379;BME280;16362;47.202;15.258;2022-10-22T06:21:24;96033.19;;;7.71;100.00
29379;BME280;16362;47.202;15.258;2022-10-22T06:23:50;96022.06;;;7.76;100.00
29379;BME280;16362;47.202;15.258;2022-10-22T06:26:17;96029.22;;;7.84;100.00
29379;BME280;16362;47.202;15.258;2022-10-22T06:28:44;96027.72;;;7.89;100.00
29379;BME280;16362;47.202;15.258;2022-10-22T06:31:11;96033.22;;;7.96;100.00
29379;BME280;16362;47.202;15.258;2022-10-22T06:33:37;96041.53;;;8.01;100.00
29379;BME280;16362;47.202;15.258;2022-10-22T06:36:10;96046.19;;;8.16;100.00
29379;BME280;16362;47.202;15.258;2022-10-22T06:38:37;96032.25;;;8.22;100.00
29379;BME280;16362;47.202;15.258;2022-10-22T06:41:10;96026.59;;;8.25;100.00
29379;BME280;16362;47.202;15.258;2022-10-22T06:43:37;96037.38;;;8.32;100.00
29379;BME280;16362;47.202;15.258;2022-10-22T06:46:07;96039.06;;;8.33;100.00
29379;BME280;16362;47.202;15.258;2022-10-22T06:48:35;96046.38;;;8.39;100.00
29379;BME280;16362;47.202;15.258;2022-10-22T06:51:05;96054.38;;;8.39;100.00
29379;BME280;16362;47.202;15.258;2022-10-22T06:53:33;96059.00;;;8.37;100.00
29379;BME280;16362;47.202;15.258;2022-10-22T06:56:05;96063.00;;;8.41;100.00
29379;BME280;16362;47.202;15.258;2022-10-22T06:58:32;96069.97;;;8.42;100.00
29379;BME280;16362;47.202;15.258;2022-10-22T07:01:03;96073.66;;;8.49;100.00
29379;BME280;16362;47.202;15.258;2022-10-22T07:03:30;96089.13;;;8.54;100.00
29379;BME280;16362;47.202;15.258;2022-10-22T07:06:01;96082.97;;;8.45;100.00
29379;BME280;16362;47.202;15.258;2022-10-22T07:08:28;96079.66;;;8.51;100.00
29379;BME280;16362;47.202;15.258;2022-10-22T07:10:55;96082.63;;;8.56;100.00
29379;BME280;16362;47.202;15.258;2022-10-22T07:13:23;96067.34;;;8.58;100.00
29379;BME280;16362;47.202;15.258;2022-10-22T07:15:53;96074.66;;;8.65;100.00
29379;BME280;16362;47.202;15.258;2022-10-22T07:18:21;96074.00;;;8.71;100.00
29379;BME280;16362;47.202;15.258;2022-10-22T07:20:48;96081.13;;;8.79;100.00
29379;BME280;16362;47.202;15.258;2022-10-22T07:23:15;96090.59;;;8.89;100.00
29379;BME280;16362;47.202;15.258;2022-10-22T07:25:42;96097.59;;;8.99;100.00
29379;BME280;16362;47.202;15.258;2022-10-22T07:28:09;96103.53;;;9.09;100.00
29379;BME280;16362;47.202;15.258;2022-10-22T07:30:37;96113.19;;;9.10;100.00
29379;BME280;16362;47.202;15.258;2022-10-22T07:33:04;96109.38;;;9.13;100.00
29379;BME280;16362;47.202;15.258;2022-10-22T07:35:32;96116.00;;;9.17;100.00
29379;BME280;16362;47.202;15.258;2022-10-22T07:37:59;96122.81;;;9.27;100.00
29379;BME280;16362;47.202;15.258;2022-10-22T07:40:26;96129.81;;;9.29;100.00
29379;BME280;16362;47.202;15.258;2022-10-22T07:42:53;96137.63;;;9.30;100.00
29379;BME280;16362;47.202;15.258;2022-10-22T07:45:19;96139.94;;;9.33;100.00
29379;BME280;16362;47.202;15.258;2022-10-22T07:47:47;96145.78;;;9.37;100.00
29379;BME280;16362;47.202;15.258;2022-10-22T07:50:14;96153.06;;;9.43;100.00
29379;BME280;16362;47.202;15.258;2022-10-22T07:52:42;96152.91;;;9.44;100.00
29379;BME280;16362;47.202;15.258;2022-10-22T07:55:09;96155.56;;;9.53;100.00
29379;BME280;16362;47.202;15.258;2022-10-22T07:57:35;96151.31;;;9.75;100.00
29379;BME280;16362;47.202;15.258;2022-10-22T08:00:05;96155.66;;;9.76;100.00
29379;BME280;16362;47.202;15.258;2022-10-22T08:02:32;96153.31;;;9.81;100.00
29379;BME280;16362;47.202;15.258;2022-10-22T08:04:59;96157.75;;;9.89;100.00
29379;BME280;16362;47.202;15.258;2022-10-22T08:07:26;96161.91;;;9.91;100.00
29379;BME280;16362;47.202;15.258;2022-10-22T08:09:53;96163.81;;;10.14;100.00
29379;BME280;16362;47.202;15.258;2022-10-22T08:12:19;96168.63;;;10.19;100.00
29379;BME280;16362;47.202;15.258;2022-10-22T08:14:46;96170.72;;;10.32;100.00
29379;BME280;16362;47.202;15.258;2022-10-22T08:17:14;96171.56;;;10.32;100.00
29379;BME280;16362;47.202;15.258;2022-10-22T08:19:41;96166.38;;;10.39;100.00
29379;BME280;16362;47.202;15.258;2022-10-22T08:22:07;96170.66;;;10.17;100.00
29379;BME280;16362;47.202;15.258;2022-10-22T08:24:34;96170.88;;;10.07;100.00
29379;BME280;16362;47.202;15.258;2022-10-22T08:27:01;96173.72;;;10.05;100.00
29379;BME280;16362;47.202;15.258;2022-10-22T08:29:28;96185.53;;;10.03;100.00
29379;BME280;16362;47.202;15.258;2022-10-22T08:31:54;96188.84;;;10.05;100.00
29379;BME280;16362;47.202;15.258;2022-10-22T08:34:21;96180.22;;;10.03;100.00
29379;BME280;16362;47.202;15.258;2022-10-22T08:36:48;96175.91;;;9.93;100.00
29379;BME280;16362;47.202;15.258;2022-10-22T08:39:14;96194.44;;;9.87;100.00
29379;BME280;16362;47.202;15.258;2022-10-22T08:48:14;96209.72;;;10.01;100.00
29379;BME280;16362;47.202;15.258;2022-10-22T08:50:45;96208.88;;;10.01;100.00
29379;BME280;16362;47.202;15.258;2022-10-22T08:53:16;96200.06;;;10.00;100.00
29379;BME280;16362;47.202;15.258;2022-10-22T08:55:44;96201.53;;;10.03;100.00
29379;BME280;16362;47.202;15.258;2022-10-22T09:01:00;96208.84;;;10.09;100.00
29379;BME280;16362;47.202;15.258;2022-10-22T09:08:29;96200.06;;;10.32;100.00
29379;BME280;16362;47.202;15.258;2022-10-22T09:13:34;96203.44;;;10.65;100.00
29379;BME280;16362;47.202;15.258;2022-10-22T09:16:14;96206.84;;;10.74;100.00
29379;BME280;16362;47.202;15.258;2022-10-22T09:21:41;96216.22;;;10.70;100.00
29379;BME280;16362;47.202;15.258;2022-10-22T09:24:16;96210.53;;;10.73;100.00
29379;BME280;16362;47.202;15.258;2022-10-22T09:26:49;96202.31;;;10.83;100.00
29379;BME280;16362;47.202;15.258;2022-10-22T09:29:20;96201.94;;;10.86;100.00
29379;BME280;16362;47.202;15.258;2022-10-22T09:31:50;96203.25;;;10.90;100.00
29379;BME280;16362;47.202;15.258;2022-10-22T09:34:20;96204.38;;;10.95;100.00
29379;BME280;16362;47.202;15.258;2022-10-22T09:36:56;96207.84;;;11.04;100.00
29379;BME280;16362;47.202;15.258;2022-10-22T09:39:31;96213.81;;;11.06;100.00
29379;BME280;16362;47.202;15.258;2022-10-22T09:41:58;96206.66;;;11.07;100.00
29379;BME280;16362;47.202;15.258;2022-10-22T09:44:25;96205.38;;;11.18;100.00
29379;BME280;16362;47.202;15.258;2022-10-22T09:46:51;96206.50;;;11.23;100.00
29379;BME280;16362;47.202;15.258;2022-10-22T09:49:20;96200.72;;;11.35;100.00
29379;BME280;16362;47.202;15.258;2022-10-22T09:51:58;96195.00;;;11.38;100.00
29379;BME280;16362;47.202;15.258;2022-10-22T09:54:38;96194.88;;;11.54;100.00
29379;BME280;16362;47.202;15.258;2022-10-22T09:57:17;96200.84;;;11.56;100.00
29379;BME280;16362;47.202;15.258;2022-10-22T09:59:48;96189.44;;;11.62;100.00
29379;BME280;16362;47.202;15.258;2022-10-22T10:02:21;96186.22;;;11.67;100.00
29379;BME280;16362;47.202;15.258;2022-10-22T10:05:04;96187.13;;;11.74;100.00
29379;BME280;16362;47.202;15.258;2022-10-22T10:07:33;96184.00;;;11.86;100.00
29379;BME280;16362;47.202;15.258;2022-10-22T10:10:00;96187.97;;;11.90;100.00
29379;BME280;16362;47.202;15.258;2022-10-22T10:12:40;96190.19;;;12.01;100.00
29379;BME280;16362;47.202;15.258;2022-10-22T10:15:37;96193.63;;;12.10;100.00
29379;BME280;16362;47.202;15.258;2022-10-22T10:18:17;96191.38;;;12.28;100.00
29379;BME280;16362;47.202;15.258;2022-10-22T10:37:37;96211.50;;;12.24;100.00
29379;BME280;16362;47.202;15.258;2022-10-22T10:40:30;96216.50;;;12.27;100.00
29379;BME280;16362;47.202;15.258;2022-10-22T10:43:08;96225.06;;;12.23;100.00
29379;BME280;16362;47.202;15.258;2022-10-22T10:45:45;96216.75;;;12.18;100.00
29379;BME280;16362;47.202;15.258;2022-10-22T10:56:32;96223.03;;;12.25;100.00
29379;BME280;16362;47.202;15.258;2022-10-22T11:07:30;96242.75;;;12.39;100.00
29379;BME280;16362;47.202;15.258;2022-10-22T11:10:12;96233.41;;;12.64;100.00
29379;BME280;16362;47.202;15.258;2022-10-22T11:12:46;96230.59;;;12.73;100.00
29379;BME280;16362;47.202;15.258;2022-10-22T11:15:27;96223.59;;;12.72;100.00
29379;BME280;16362;47.202;15.258;2022-10-22T11:18:02;96226.53;;;12.77;100.00
29379;BME280;16362;47.202;15.258;2022-10-22T11:20:57;96219.47;;;12.69;100.00
29379;BME280;16362;47.202;15.258;2022-10-22T11:23:32;96214.81;;;12.78;100.00
29379;BME280;16362;47.202;15.258;2022-10-22T11:26:01;96223.22;;;12.75;100.00
29379;BME280;16362;47.202;15.258;2022-10-22T11:28:33;96225.53;;;12.78;100.00
29379;BME280;16362;47.202;15.258;2022-10-22T11:31:04;96222.03;;;12.77;100.00
29379;BME280;16362;47.202;15.258;2022-10-22T11:33:41;96218.94;;;12.80;100.00
29379;BME280;16362;47.202;15.258;2022-10-22T11:36:11;96219.53;;;12.76;100.00
29379;BME280;16362;47.202;15.258;2022-10-22T11:38:38;96221.16;;;12.77;100.00
29379;BME280;16362;47.202;15.258;2022-10-22T11:41:32;96219.22;;;12.86;100.00
29379;BME280;16362;47.202;15.258;2022-10-22T11:44:20;96217.16;;;12.88;100.00
29379;BME280;16362;47.202;15.258;2022-10-22T11:47:06;96224.31;;;12.80;100.00
29379;BME280;16362;47.202;15.258;2022-10-22T11:49:42;96218.75;;;12.82;100.00
29379;BME280;16362;47.202;15.258;2022-10-22T11:52:26;96234.84;;;12.82;100.00
29379;BME280;16362;47.202;15.258;2022-10-22T12:11:35;96225.47;;;12.93;100.00
29379;BME280;16362;47.202;15.258;2022-10-22T12:16:55;96217.69;;;12.98;100.00
29379;BME280;16362;47.202;15.258;2022-10-22T12:19:30;96211.88;;;12.94;100.00
29379;BME280;16362;47.202;15.258;2022-10-22T12:22:13;96224.19;;;12.89;100.00
29379;BME280;16362;47.202;15.258;2022-10-22T12:24:52;96220.13;;;12.93;100.00
29379;BME280;16362;47.202;15.258;2022-10-22T12:27:35;96241.03;;;13.04;100.00
29379;BME280;16362;47.202;15.258;2022-10-22T12:30:17;96239.06;;;13.13;100.00
29379;BME280;16362;47.202;15.258;2022-10-22T12:32:44;96233.00;;;13.04;100.00
29379;BME280;16362;47.202;15.258;2022-10-22T12:35:16;96242.63;;;12.98;100.00
29379;BME280;16362;47.202;15.258;2022-10-22T12:37:43;96236.63;;;12.96;100.00
29379;BME280;16362;47.202;15.258;2022-10-22T12:40:27;96238.66;;;12.94;100.00
29379;BME280;16362;47.202;15.258;2022-10-22T12:42:56;96235.72;;;12.89;100.00
29379;BME280;16362;47.202;15.258;2022-10-22T12:45:30;96243.31;;;12.86;100.00
29379;BME280;16362;47.202;15.258;2022-10-22T12:48:00;96244.72;;;12.82;100.00
29379;BME280;16362;47.202;15.258;2022-10-22T12:50:35;96241.19;;;12.81;100.00
29379;BME280;16362;47.202;15.258;2022-10-22T12:53:06;96248.88;;;12.84;100.00
29379;BME280;16362;47.202;15.258;2022-10-22T12:55:39;96259.19;;;12.87;100.00
29379;BME280;16362;47.202;15.258;2022-10-22T12:58:06;96253.38;;;12.84;100.00
29379;BME280;16362;47.202;15.258;2022-10-22T13:00:34;96258.53;;;12.85;100.00
29379;BME280;16362;47.202;15.258;2022-10-22T13:03:04;96254.22;;;12.84;100.00
29379;BME280;16362;47.202;15.258;2022-10-22T13:05:33;96254.41;;;12.83;100.00
29379;BME280;16362;47.202;15.258;2022-10-22T13:08:08;96260.97;;;12.80;100.00
29379;BME280;16362;47.202;15.258;2022-10-22T13:10:38;96271.50;;;12.82;100.00
29379;BME280;16362;47.202;15.258;2022-10-22T13:13:06;96266.97;;;12.82;100.00
29379;BME280;16362;47.202;15.258;2022-10-22T13:15:38;96274.00;;;12.83;100.00
29379;BME280;16362;47.202;15.258;2022-10-22T13:18:15;96260.53;;;12.76;100.00
29379;BME280;16362;47.202;15.258;2022-10-22T13:20:53;96263.19;;;12.76;100.00
29379;BME280;16362;47.202;15.258;2022-10-22T13:23:25;96265.31;;;12.81;100.00
29379;BME280;16362;47.202;15.258;2022-10-22T13:26:00;96268.63;;;12.83;100.00
29379;BME280;16362;47.202;15.258;2022-10-22T13:28:29;96263.91;;;12.85;100.00
29379;BME280;16362;47.202;15.258;2022-10-22T13:31:07;96253.72;;;12.95;100.00
29379;BME280;16362;47.202;15.258;2022-10-22T13:33:37;96253.25;;;12.92;100.00
29379;BME280;16362;47.202;15.258;2022-10-22T13:36:05;96258.63;;;12.92;100.00
29379;BME280;16362;47.202;15.258;2022-10-22T13:38:34;96251.63;;;12.91;100.00
29379;BME280;16362;47.202;15.258;2022-10-22T13:41:00;96254.94;;;12.93;100.00
29379;BME280;16362;47.202;15.258;2022-10-22T13:43:28;96261.69;;;12.89;100.00
29379;BME280;16362;47.202;15.258;2022-10-22T13:45:57;96266.03;;;12.90;100.00
29379;BME280;16362;47.202;15.258;2022-10-22T13:48:27;96266.47;;;12.93;100.00
29379;BME280;16362;47.202;15.258;2022-10-22T13:50:54;96268.78;;;12.96;100.00
29379;BME280;16362;47.202;15.258;2022-10-22T13:53:22;96266.38;;;13.02;100.00
29379;BME280;16362;47.202;15.258;2022-10-22T13:55:50;96268.66;;;13.26;100.00
29379;BME280;16362;47.202;15.258;2022-10-22T13:58:19;96271.97;;;13.28;100.00
29379;BME280;16362;47.202;15.258;2022-10-22T14:00:55;96285.97;;;13.24;100.00
29379;BME280;16362;47.202;15.258;2022-10-22T14:03:29;96298.72;;;13.22;100.00
29379;BME280;16362;47.202;15.258;2022-10-22T14:05:57;96293.94;;;13.17;100.00
29379;BME280;16362;47.202;15.258;2022-10-22T14:08:25;96294.38;;;13.21;100.00
29379;BME280;16362;47.202;15.258;2022-10-22T14:10:52;96293.47;;;13.13;100.00
29379;BME280;16362;47.202;15.258;2022-10-22T14:13:20;96301.06;;;13.10;100.00
29379;BME280;16362;47.202;15.258;2022-10-22T14:15:48;96302.78;;;13.18;100.00
29379;BME280;16362;47.202;15.258;2022-10-22T14:18:20;96304.25;;;13.20;100.00
29379;BME280;16362;47.202;15.258;2022-10-22T14:21:01;96308.09;;;13.32;100.00
29379;BME280;16362;47.202;15.258;2022-10-22T14:23:33;96307.56;;;13.37;100.00
29379;BME280;16362;47.202;15.258;2022-10-22T14:26:02;96303.59;;;13.33;100.00
29379;BME280;16362;47.202;15.258;2022-10-22T14:28:29;96307.19;;;13.25;100.00
29379;BME280;16362;47.202;15.258;2022-10-22T14:31:08;96310.81;;;13.18;100.00
29379;BME280;16362;47.202;15.258;2022-10-22T14:33:36;96314.28;;;13.11;100.00
29379;BME280;16362;47.202;15.258;2022-10-22T14:36:03;96310.50;;;13.06;100.00
29379;BME280;16362;47.202;15.258;2022-10-22T14:38:30;96309.84;;;13.04;100.00
29379;BME280;16362;47.202;15.258;2022-10-22T14:40:58;96308.56;;;13.00;100.00